sensor_id;sensor_type;location;lat;lon;timestamp;P1;durP1;ratioP1;P2;durP2;ratioP2
19617;SDS011;9956;51.006;13.670;2023-07-13T00:04:11;2.50;;;2.20;;
19617;SDS011;9956;51.006;13.670;2023-07-13T00:09:14;3.17;;;2.00;;
19617;SDS011;9956;51.006;13.670;2023-07-13T00:14:16;4.20;;;2.50;;
19617;SDS011;9956;51.006;13.670;2023-07-13T00:19:17;4.40;;;2.20;;
19617;SDS011;9956;51.006;13.670;2023-07-13T00:24:18;4.00;;;2.20;;
19617;SDS011;9956;51.006;13.670;2023-07-13T00:29:25;7.10;;;2.60;;
19617;SDS011;9956;51.006;13.670;2023-07-13T00:34:26;2.70;;;2.50;;
19617;SDS011;9956;51.006;13.670;2023-07-13T00:39:27;6.38;;;3.00;;
19617;SDS011;9956;51.006;13.670;2023-07-13T00:44:27;3.40;;;3.10;;
19617;SDS011;9956;51.006;13.670;2023-07-13T00:49:29;5.80;;;3.17;;
19617;SDS011;9956;51.006;13.670;2023-07-13T00:54:41;5.00;;;3.22;;
19617;SDS011;9956;51.006;13.670;2023-07-13T00:59:46;4.25;;;3.80;;
19617;SDS011;9956;51.006;13.670;2023-07-13T01:04:48;4.63;;;4.22;;
19617;SDS011;9956;51.006;13.670;2023-07-13T01:09:48;5.20;;;4.70;;
19617;SDS011;9956;51.006;13.670;2023-07-13T01:14:56;6.70;;;6.15;;
19617;SDS011;9956;51.006;13.670;2023-07-13T01:20:00;8.68;;;7.25;;
19617;SDS011;9956;51.006;13.670;2023-07-13T01:25:02;7.72;;;6.93;;
19617;SDS011;9956;51.006;13.670;2023-07-13T01:30:03;11.88;;;9.60;;
19617;SDS011;9956;51.006;13.670;2023-07-13T01:35:04;10.85;;;9.85;;
19617;SDS011;9956;51.006;13.670;2023-07-13T01:40:05;9.15;;;8.27;;
19617;SDS011;9956;51.006;13.670;2023-07-13T01:45:06;9.15;;;7.93;;
19617;SDS011;9956;51.006;13.670;2023-07-13T01:50:07;9.60;;;8.68;;
19617;SDS011;9956;51.006;13.670;2023-07-13T01:55:07;10.63;;;8.88;;
19617;SDS011;9956;51.006;13.670;2023-07-13T02:00:09;12.60;;;11.07;;
19617;SDS011;9956;51.006;13.670;2023-07-13T02:05:16;14.90;;;12.13;;
19617;SDS011;9956;51.006;13.670;2023-07-13T02:10:17;13.40;;;11.07;;
19617;SDS011;9956;51.006;13.670;2023-07-13T02:15:17;13.05;;;10.82;;
19617;SDS011;9956;51.006;13.670;2023-07-13T02:20:18;15.25;;;11.90;;
19617;SDS011;9956;51.006;13.670;2023-07-13T02:25:19;13.35;;;11.98;;
19617;SDS011;9956;51.006;13.670;2023-07-13T02:30:20;17.98;;;13.95;;
19617;SDS011;9956;51.006;13.670;2023-07-13T02:35:20;11.55;;;10.50;;
19617;SDS011;9956;51.006;13.670;2023-07-13T02:40:21;13.90;;;12.55;;
19617;SDS011;9956;51.006;13.670;2023-07-13T02:45:21;16.80;;;13.48;;
19617;SDS011;9956;51.006;13.670;2023-07-13T02:50:22;14.02;;;12.30;;
19617;SDS011;9956;51.006;13.670;2023-07-13T02:55:22;16.02;;;12.70;;
19617;SDS011;9956;51.006;13.670;2023-07-13T03:00:23;23.40;;;14.88;;
19617;SDS011;9956;51.006;13.670;2023-07-13T03:05:23;12.15;;;10.80;;
19617;SDS011;9956;51.006;13.670;2023-07-13T03:10:24;17.40;;;13.20;;
19617;SDS011;9956;51.006;13.670;2023-07-13T03:15:26;12.32;;;11.25;;
19617;SDS011;9956;51.006;13.670;2023-07-13T03:20:31;16.95;;;13.30;;
19617;SDS011;9956;51.006;13.670;2023-07-13T03:25:33;16.63;;;13.70;;
19617;SDS011;9956;51.006;13.670;2023-07-13T03:30:35;13.43;;;12.02;;
19617;SDS011;9956;51.006;13.670;2023-07-13T03:35:39;16.95;;;13.73;;
19617;SDS011;9956;51.006;13.670;2023-07-13T03:40:40;12.75;;;11.57;;
19617;SDS011;9956;51.006;13.670;2023-07-13T03:45:41;13.48;;;12.00;;
19617;SDS011;9956;51.006;13.670;2023-07-13T03:50:42;12.80;;;11.48;;
19617;SDS011;9956;51.006;13.670;2023-07-13T03:55:43;9.80;;;9.00;;
19617;SDS011;9956;51.006;13.670;2023-07-13T04:00:44;8.85;;;8.05;;
19617;SDS011;9956;51.006;13.670;2023-07-13T04:05:45;7.15;;;6.53;;
19617;SDS011;9956;51.006;13.670;2023-07-13T04:10:46;6.90;;;6.22;;
19617;SDS011;9956;51.006;13.670;2023-07-13T04:15:47;6.63;;;6.03;;
19617;SDS011;9956;51.006;13.670;2023-07-13T04:20:48;13.77;;;12.38;;
19617;SDS011;9956;51.006;13.670;2023-07-13T04:25:51;15.15;;;13.55;;
19617;SDS011;9956;51.006;13.670;2023-07-13T04:30:53;7.57;;;6.50;;
19617;SDS011;9956;51.006;13.670;2023-07-13T04:35:55;7.53;;;5.57;;
19617;SDS011;9956;51.006;13.670;2023-07-13T04:41:02;10.43;;;8.15;;
19617;SDS011;9956;51.006;13.670;2023-07-13T04:46:05;6.75;;;6.07;;
19617;SDS011;9956;51.006;13.670;2023-07-13T04:51:14;4.35;;;3.95;;
19617;SDS011;9956;51.006;13.670;2023-07-13T04:56:15;4.57;;;4.18;;
19617;SDS011;9956;51.006;13.670;2023-07-13T05:01:16;5.80;;;4.65;;
19617;SDS011;9956;51.006;13.670;2023-07-13T05:06:16;4.80;;;4.28;;
19617;SDS011;9956;51.006;13.670;2023-07-13T05:11:17;6.75;;;6.00;;
19617;SDS011;9956;51.006;13.670;2023-07-13T05:16:18;5.97;;;5.22;;
19617;SDS011;9956;51.006;13.670;2023-07-13T05:21:19;5.60;;;5.10;;
19617;SDS011;9956;51.006;13.670;2023-07-13T05:26:19;5.50;;;4.55;;
19617;SDS011;9956;51.006;13.670;2023-07-13T05:31:20;4.63;;;3.80;;
19617;SDS011;9956;51.006;13.670;2023-07-13T05:36:21;4.00;;;3.70;;
19617;SDS011;9956;51.006;13.670;2023-07-13T05:41:21;2.92;;;2.72;;
19617;SDS011;9956;51.006;13.670;2023-07-13T05:46:22;3.88;;;3.42;;
19617;SDS011;9956;51.006;13.670;2023-07-13T05:51:22;4.22;;;2.83;;
19617;SDS011;9956;51.006;13.670;2023-07-13T05:56:23;4.30;;;2.88;;
19617;SDS011;9956;51.006;13.670;2023-07-13T06:01:23;3.75;;;2.53;;
19617;SDS011;9956;51.006;13.670;2023-07-13T06:06:23;4.20;;;3.15;;
19617;SDS011;9956;51.006;13.670;2023-07-13T06:11:25;4.28;;;3.28;;
19617;SDS011;9956;51.006;13.670;2023-07-13T06:16:26;4.38;;;3.22;;
19617;SDS011;9956;51.006;13.670;2023-07-13T06:21:27;5.72;;;3.33;;
19617;SDS011;9956;51.006;13.670;2023-07-13T06:26:27;2.78;;;2.47;;
19617;SDS011;9956;51.006;13.670;2023-07-13T06:31:28;5.53;;;2.67;;
19617;SDS011;9956;51.006;13.670;2023-07-13T06:36:28;4.93;;;2.75;;
19617;SDS011;9956;51.006;13.670;2023-07-13T06:41:29;7.35;;;2.83;;
19617;SDS011;9956;51.006;13.670;2023-07-13T06:46:32;4.15;;;2.83;;
19617;SDS011;9956;51.006;13.670;2023-07-13T06:51:32;3.10;;;2.25;;
19617;SDS011;9956;51.006;13.670;2023-07-13T06:56:33;3.47;;;2.10;;
19617;SDS011;9956;51.006;13.670;2023-07-13T07:01:34;4.22;;;2.15;;
19617;SDS011;9956;51.006;13.670;2023-07-13T07:06:34;5.72;;;2.00;;
19617;SDS011;9956;51.006;13.670;2023-07-13T07:11:35;3.38;;;2.15;;
19617;SDS011;9956;51.006;13.670;2023-07-13T07:16:35;3.92;;;1.67;;
19617;SDS011;9956;51.006;13.670;2023-07-13T07:21:36;5.10;;;1.95;;
19617;SDS011;9956;51.006;13.670;2023-07-13T07:26:36;3.72;;;1.85;;
19617;SDS011;9956;51.006;13.670;2023-07-13T07:31:37;2.92;;;1.77;;
19617;SDS011;9956;51.006;13.670;2023-07-13T07:36:37;2.72;;;1.90;;
19617;SDS011;9956;51.006;13.670;2023-07-13T07:41:38;4.80;;;1.80;;
19617;SDS011;9956;51.006;13.670;2023-07-13T07:46:38;2.83;;;1.70;;
19617;SDS011;9956;51.006;13.670;2023-07-13T07:51:41;2.15;;;1.27;;
19617;SDS011;9956;51.006;13.670;2023-07-13T07:56:41;5.13;;;1.50;;
19617;SDS011;9956;51.006;13.670;2023-07-13T08:01:42;2.17;;;1.65;;
19617;SDS011;9956;51.006;13.670;2023-07-13T08:06:43;2.75;;;1.45;;
19617;SDS011;9956;51.006;13.670;2023-07-13T08:11:44;2.65;;;1.27;;
19617;SDS011;9956;51.006;13.670;2023-07-13T08:16:44;2.10;;;1.13;;
19617;SDS011;9956;51.006;13.670;2023-07-13T08:21:45;2.10;;;1.17;;
19617;SDS011;9956;51.006;13.670;2023-07-13T08:26:48;1.90;;;1.00;;
19617;SDS011;9956;51.006;13.670;2023-07-13T08:31:48;3.17;;;1.23;;
19617;SDS011;9956;51.006;13.670;2023-07-13T08:36:50;3.03;;;1.20;;
19617;SDS011;9956;51.006;13.670;2023-07-13T08:41:52;2.90;;;1.20;;
19617;SDS011;9956;51.006;13.670;2023-07-13T08:46:53;2.83;;;1.30;;
19617;SDS011;9956;51.006;13.670;2023-07-13T08:57:27;3.47;;;1.48;;
19617;SDS011;9956;51.006;13.670;2023-07-13T09:02:42;1.73;;;1.10;;
19617;SDS011;9956;51.006;13.670;2023-07-13T09:23:37;3.10;;;1.25;;
19617;SDS011;9956;51.006;13.670;2023-07-13T09:28:39;4.05;;;1.10;;
19617;SDS011;9956;51.006;13.670;2023-07-13T09:33:42;1.65;;;0.98;;
19617;SDS011;9956;51.006;13.670;2023-07-13T09:38:43;4.97;;;1.52;;
19617;SDS011;9956;51.006;13.670;2023-07-13T09:49:08;2.90;;;1.30;;
19617;SDS011;9956;51.006;13.670;2023-07-13T09:54:17;3.58;;;1.60;;
19617;SDS011;9956;51.006;13.670;2023-07-13T09:59:20;4.25;;;1.40;;
19617;SDS011;9956;51.006;13.670;2023-07-13T10:04:26;4.63;;;1.60;;
19617;SDS011;9956;51.006;13.670;2023-07-13T10:09:35;3.20;;;1.27;;
19617;SDS011;9956;51.006;13.670;2023-07-13T10:14:36;4.70;;;1.52;;
19617;SDS011;9956;51.006;13.670;2023-07-13T10:19:36;4.85;;;1.55;;
19617;SDS011;9956;51.006;13.670;2023-07-13T10:24:37;3.50;;;1.40;;
19617;SDS011;9956;51.006;13.670;2023-07-13T10:29:41;3.35;;;1.20;;
19617;SDS011;9956;51.006;13.670;2023-07-13T10:34:50;3.45;;;1.35;;
19617;SDS011;9956;51.006;13.670;2023-07-13T10:39:52;1.83;;;1.15;;
19617;SDS011;9956;51.006;13.670;2023-07-13T10:44:54;3.45;;;1.25;;
19617;SDS011;9956;51.006;13.670;2023-07-13T10:49:55;3.95;;;1.23;;
19617;SDS011;9956;51.006;13.670;2023-07-13T10:54:58;10.63;;;1.95;;
19617;SDS011;9956;51.006;13.670;2023-07-13T11:00:16;4.88;;;1.42;;
19617;SDS011;9956;51.006;13.670;2023-07-13T11:05:25;1.75;;;1.20;;
19617;SDS011;9956;51.006;13.670;2023-07-13T11:10:50;5.93;;;1.35;;
19617;SDS011;9956;51.006;13.670;2023-07-13T11:15:54;2.38;;;1.20;;
19617;SDS011;9956;51.006;13.670;2023-07-13T11:21:12;4.35;;;1.23;;
19617;SDS011;9956;51.006;13.670;2023-07-13T11:31:53;4.65;;;1.58;;
19617;SDS011;9956;51.006;13.670;2023-07-13T11:36:55;3.67;;;1.42;;
19617;SDS011;9956;51.006;13.670;2023-07-13T11:41:58;3.75;;;1.58;;
19617;SDS011;9956;51.006;13.670;2023-07-13T11:47:19;4.97;;;1.65;;
19617;SDS011;9956;51.006;13.670;2023-07-13T11:52:22;4.53;;;1.30;;
19617;SDS011;9956;51.006;13.670;2023-07-13T12:02:30;2.42;;;1.40;;
19617;SDS011;9956;51.006;13.670;2023-07-13T12:07:33;3.13;;;1.50;;
19617;SDS011;9956;51.006;13.670;2023-07-13T12:12:34;2.00;;;1.35;;
19617;SDS011;9956;51.006;13.670;2023-07-13T12:17:34;4.57;;;1.60;;
19617;SDS011;9956;51.006;13.670;2023-07-13T12:22:35;1.98;;;1.38;;
19617;SDS011;9956;51.006;13.670;2023-07-13T12:27:36;6.25;;;1.45;;
19617;SDS011;9956;51.006;13.670;2023-07-13T12:32:37;3.08;;;1.60;;
19617;SDS011;9956;51.006;13.670;2023-07-13T12:37:38;3.97;;;1.65;;
19617;SDS011;9956;51.006;13.670;2023-07-13T12:42:42;3.15;;;1.30;;
19617;SDS011;9956;51.006;13.670;2023-07-13T12:47:43;3.78;;;1.55;;
19617;SDS011;9956;51.006;13.670;2023-07-13T12:52:50;5.15;;;1.55;;
19617;SDS011;9956;51.006;13.670;2023-07-13T12:57:53;5.65;;;1.40;;
19617;SDS011;9956;51.006;13.670;2023-07-13T13:02:56;3.45;;;1.35;;
19617;SDS011;9956;51.006;13.670;2023-07-13T13:07:57;3.58;;;1.17;;
19617;SDS011;9956;51.006;13.670;2023-07-13T13:12:58;5.45;;;1.42;;
19617;SDS011;9956;51.006;13.670;2023-07-13T13:17:59;1.67;;;1.17;;
19617;SDS011;9956;51.006;13.670;2023-07-13T13:22:59;3.05;;;1.27;;
19617;SDS011;9956;51.006;13.670;2023-07-13T13:28:00;3.63;;;1.60;;
19617;SDS011;9956;51.006;13.670;2023-07-13T13:33:00;6.57;;;1.42;;
19617;SDS011;9956;51.006;13.670;2023-07-13T13:38:01;2.97;;;1.35;;
19617;SDS011;9956;51.006;13.670;2023-07-13T13:43:01;2.75;;;1.40;;
19617;SDS011;9956;51.006;13.670;2023-07-13T13:48:02;3.65;;;1.42;;
19617;SDS011;9956;51.006;13.670;2023-07-13T13:53:02;4.35;;;1.30;;
19617;SDS011;9956;51.006;13.670;2023-07-13T13:58:03;4.65;;;1.30;;
19617;SDS011;9956;51.006;13.670;2023-07-13T14:03:03;3.70;;;1.40;;
19617;SDS011;9956;51.006;13.670;2023-07-13T14:08:04;4.53;;;1.40;;
19617;SDS011;9956;51.006;13.670;2023-07-13T14:13:04;5.05;;;1.60;;
19617;SDS011;9956;51.006;13.670;2023-07-13T14:18:08;3.80;;;1.30;;
19617;SDS011;9956;51.006;13.670;2023-07-13T14:23:09;6.57;;;1.73;;
19617;SDS011;9956;51.006;13.670;2023-07-13T14:28:14;4.93;;;1.33;;
19617;SDS011;9956;51.006;13.670;2023-07-13T14:33:16;4.82;;;1.30;;
19617;SDS011;9956;51.006;13.670;2023-07-13T14:38:18;5.72;;;1.60;;
19617;SDS011;9956;51.006;13.670;2023-07-13T14:43:19;4.88;;;1.80;;
19617;SDS011;9956;51.006;13.670;2023-07-13T14:48:21;6.10;;;1.15;;
19617;SDS011;9956;51.006;13.670;2023-07-13T14:53:24;2.17;;;1.40;;
19617;SDS011;9956;51.006;13.670;2023-07-13T14:58:25;4.60;;;1.55;;
19617;SDS011;9956;51.006;13.670;2023-07-13T15:03:26;4.13;;;1.20;;
19617;SDS011;9956;51.006;13.670;2023-07-13T15:08:26;2.45;;;1.20;;
19617;SDS011;9956;51.006;13.670;2023-07-13T15:13:27;4.15;;;1.27;;
19617;SDS011;9956;51.006;13.670;2023-07-13T15:18:29;3.13;;;1.10;;
19617;SDS011;9956;51.006;13.670;2023-07-13T15:23:29;3.38;;;1.10;;
19617;SDS011;9956;51.006;13.670;2023-07-13T15:28:29;2.45;;;1.10;;
19617;SDS011;9956;51.006;13.670;2023-07-13T15:33:30;3.65;;;1.05;;
19617;SDS011;9956;51.006;13.670;2023-07-13T15:38:32;3.90;;;1.17;;
19617;SDS011;9956;51.006;13.670;2023-07-13T15:43:34;1.98;;;0.80;;
19617;SDS011;9956;51.006;13.670;2023-07-13T15:48:35;1.55;;;0.90;;
19617;SDS011;9956;51.006;13.670;2023-07-13T15:53:35;1.33;;;0.65;;
19617;SDS011;9956;51.006;13.670;2023-07-13T15:58:38;3.40;;;0.70;;
19617;SDS011;9956;51.006;13.670;2023-07-13T16:03:39;2.88;;;0.68;;
19617;SDS011;9956;51.006;13.670;2023-07-13T16:08:39;3.15;;;0.80;;
19617;SDS011;9956;51.006;13.670;2023-07-13T16:13:40;3.25;;;0.90;;
19617;SDS011;9956;51.006;13.670;2023-07-13T16:18:41;1.13;;;0.73;;
19617;SDS011;9956;51.006;13.670;2023-07-13T16:23:42;3.25;;;0.60;;
19617;SDS011;9956;51.006;13.670;2023-07-13T16:28:45;2.72;;;0.70;;
19617;SDS011;9956;51.006;13.670;2023-07-13T16:33:45;2.10;;;0.80;;
19617;SDS011;9956;51.006;13.670;2023-07-13T16:38:45;2.70;;;1.05;;
19617;SDS011;9956;51.006;13.670;2023-07-13T16:43:46;3.65;;;0.95;;
19617;SDS011;9956;51.006;13.670;2023-07-13T16:48:46;3.75;;;1.40;;
19617;SDS011;9956;51.006;13.670;2023-07-13T16:53:47;2.35;;;1.10;;
19617;SDS011;9956;51.006;13.670;2023-07-13T16:58:47;2.33;;;1.38;;
19617;SDS011;9956;51.006;13.670;2023-07-13T17:03:48;2.25;;;1.60;;
19617;SDS011;9956;51.006;13.670;2023-07-13T17:08:48;2.47;;;1.65;;
19617;SDS011;9956;51.006;13.670;2023-07-13T17:13:53;3.72;;;1.92;;
19617;SDS011;9956;51.006;13.670;2023-07-13T17:18:54;3.58;;;1.98;;
19617;SDS011;9956;51.006;13.670;2023-07-13T17:23:58;3.70;;;1.95;;
19617;SDS011;9956;51.006;13.670;2023-07-13T17:28:59;3.47;;;1.67;;
19617;SDS011;9956;51.006;13.670;2023-07-13T17:33:59;4.40;;;1.40;;
19617;SDS011;9956;51.006;13.670;2023-07-13T17:38:59;5.28;;;1.80;;
19617;SDS011;9956;51.006;13.670;2023-07-13T17:44:00;2.72;;;1.83;;
19617;SDS011;9956;51.006;13.670;2023-07-13T17:49:01;5.20;;;1.67;;
19617;SDS011;9956;51.006;13.670;2023-07-13T17:54:04;2.95;;;1.42;;
19617;SDS011;9956;51.006;13.670;2023-07-13T17:59:14;2.78;;;1.40;;
19617;SDS011;9956;51.006;13.670;2023-07-13T18:04:15;4.22;;;1.33;;
19617;SDS011;9956;51.006;13.670;2023-07-13T18:09:18;2.75;;;1.38;;
19617;SDS011;9956;51.006;13.670;2023-07-13T18:14:20;4.63;;;1.20;;
19617;SDS011;9956;51.006;13.670;2023-07-13T18:19:32;2.05;;;1.00;;
19617;SDS011;9956;51.006;13.670;2023-07-13T18:24:33;3.00;;;1.27;;
19617;SDS011;9956;51.006;13.670;2023-07-13T18:29:34;2.63;;;1.15;;
19617;SDS011;9956;51.006;13.670;2023-07-13T18:34:38;1.50;;;1.23;;
19617;SDS011;9956;51.006;13.670;2023-07-13T18:39:42;3.25;;;1.00;;
19617;SDS011;9956;51.006;13.670;2023-07-13T18:44:42;2.58;;;1.27;;
19617;SDS011;9956;51.006;13.670;2023-07-13T18:49:43;4.07;;;1.05;;
19617;SDS011;9956;51.006;13.670;2023-07-13T18:54:43;2.55;;;1.10;;
19617;SDS011;9956;51.006;13.670;2023-07-13T18:59:44;4.40;;;1.67;;
19617;SDS011;9956;51.006;13.670;2023-07-13T19:04:44;2.03;;;1.10;;
19617;SDS011;9956;51.006;13.670;2023-07-13T19:09:45;1.83;;;1.25;;
19617;SDS011;9956;51.006;13.670;2023-07-13T19:14:46;1.95;;;1.00;;
19617;SDS011;9956;51.006;13.670;2023-07-13T19:19:48;3.35;;;1.23;;
19617;SDS011;9956;51.006;13.670;2023-07-13T19:24:49;6.07;;;0.90;;
19617;SDS011;9956;51.006;13.670;2023-07-13T19:29:50;1.50;;;1.20;;
19617;SDS011;9956;51.006;13.670;2023-07-13T19:34:51;2.75;;;1.27;;
19617;SDS011;9956;51.006;13.670;2023-07-13T19:39:52;5.13;;;1.20;;
19617;SDS011;9956;51.006;13.670;2023-07-13T19:44:55;3.25;;;1.40;;
19617;SDS011;9956;51.006;13.670;2023-07-13T19:49:56;3.40;;;1.20;;
19617;SDS011;9956;51.006;13.670;2023-07-13T19:54:58;1.80;;;1.33;;
19617;SDS011;9956;51.006;13.670;2023-07-13T19:59:58;5.25;;;1.50;;
19617;SDS011;9956;51.006;13.670;2023-07-13T20:04:59;3.80;;;1.58;;
19617;SDS011;9956;51.006;13.670;2023-07-13T20:10:15;2.78;;;1.70;;
19617;SDS011;9956;51.006;13.670;2023-07-13T20:15:18;2.95;;;1.40;;
19617;SDS011;9956;51.006;13.670;2023-07-13T20:20:28;4.47;;;1.67;;
19617;SDS011;9956;51.006;13.670;2023-07-13T20:25:32;4.80;;;1.45;;
19617;SDS011;9956;51.006;13.670;2023-07-13T20:30:33;9.52;;;1.92;;
19617;SDS011;9956;51.006;13.670;2023-07-13T20:35:35;4.93;;;2.05;;
19617;SDS011;9956;51.006;13.670;2023-07-13T20:40:35;3.70;;;1.90;;
19617;SDS011;9956;51.006;13.670;2023-07-13T20:45:36;2.33;;;1.33;;
19617;SDS011;9956;51.006;13.670;2023-07-13T20:50:37;4.07;;;1.83;;
19617;SDS011;9956;51.006;13.670;2023-07-13T20:55:37;4.85;;;2.17;;
19617;SDS011;9956;51.006;13.670;2023-07-13T21:00:38;2.35;;;1.60;;
19617;SDS011;9956;51.006;13.670;2023-07-13T21:05:41;4.15;;;1.98;;
19617;SDS011;9956;51.006;13.670;2023-07-13T21:10:42;2.75;;;1.85;;
19617;SDS011;9956;51.006;13.670;2023-07-13T21:15:43;5.35;;;1.88;;
19617;SDS011;9956;51.006;13.670;2023-07-13T21:20:54;3.55;;;1.77;;
19617;SDS011;9956;51.006;13.670;2023-07-13T21:25:55;3.65;;;2.03;;
19617;SDS011;9956;51.006;13.670;2023-07-13T21:30:58;2.58;;;2.22;;
19617;SDS011;9956;51.006;13.670;2023-07-13T21:36:00;2.38;;;1.80;;
19617;SDS011;9956;51.006;13.670;2023-07-13T21:41:11;8.07;;;2.10;;
19617;SDS011;9956;51.006;13.670;2023-07-13T21:46:32;3.20;;;2.00;;
19617;SDS011;9956;51.006;13.670;2023-07-13T21:51:32;4.05;;;1.65;;
19617;SDS011;9956;51.006;13.670;2023-07-13T21:56:34;3.58;;;1.73;;
19617;SDS011;9956;51.006;13.670;2023-07-13T22:01:34;3.75;;;1.90;;
19617;SDS011;9956;51.006;13.670;2023-07-13T22:06:36;4.97;;;1.50;;
19617;SDS011;9956;51.006;13.670;2023-07-13T22:11:37;3.58;;;1.67;;
19617;SDS011;9956;51.006;13.670;2023-07-13T22:16:37;4.00;;;1.90;;
19617;SDS011;9956;51.006;13.670;2023-07-13T22:21:38;4.15;;;1.80;;
19617;SDS011;9956;51.006;13.670;2023-07-13T22:26:39;5.57;;;2.15;;
19617;SDS011;9956;51.006;13.670;2023-07-13T22:31:39;4.55;;;1.77;;
19617;SDS011;9956;51.006;13.670;2023-07-13T22:36:40;2.85;;;1.35;;
19617;SDS011;9956;51.006;13.670;2023-07-13T22:41:41;4.00;;;1.80;;
19617;SDS011;9956;51.006;13.670;2023-07-13T22:46:42;3.13;;;1.60;;
19617;SDS011;9956;51.006;13.670;2023-07-13T22:51:42;4.40;;;1.80;;
19617;SDS011;9956;51.006;13.670;2023-07-13T22:56:43;4.20;;;1.30;;
19617;SDS011;9956;51.006;13.670;2023-07-13T23:01:43;2.95;;;1.60;;
19617;SDS011;9956;51.006;13.670;2023-07-13T23:06:44;2.95;;;1.58;;
19617;SDS011;9956;51.006;13.670;2023-07-13T23:11:45;2.75;;;1.58;;
19617;SDS011;9956;51.006;13.670;2023-07-13T23:16:46;2.80;;;1.75;;
19617;SDS011;9956;51.006;13.670;2023-07-13T23:21:49;4.70;;;1.83;;
19617;SDS011;9956;51.006;13.670;2023-07-13T23:26:50;3.03;;;1.80;;
19617;SDS011;9956;51.006;13.670;2023-07-13T23:31:51;2.50;;;1.80;;
19617;SDS011;9956;51.006;13.670;2023-07-13T23:36:51;2.97;;;2.03;;
19617;SDS011;9956;51.006;13.670;2023-07-13T23:41:52;3.08;;;2.05;;
19617;SDS011;9956;51.006;13.670;2023-07-13T23:46:53;4.88;;;2.20;;
19617;SDS011;9956;51.006;13.670;2023-07-13T23:51:55;5.03;;;2.40;;
19617;SDS011;9956;51.006;13.670;2023-07-13T23:56:58;5.45;;;2.55;;
